sensor_id;sensor_type;location;lat;lon;timestamp;P1;durP1;ratioP1;P2;durP2;ratioP2
15708;SDS011;7954;51.914;8.420;2023-07-02T00:00:31;4.13;;;3.57;;
15708;SDS011;7954;51.914;8.420;2023-07-02T00:03:00;3.10;;;2.90;;
15708;SDS011;7954;51.914;8.420;2023-07-02T00:05:28;3.40;;;3.10;;
15708;SDS011;7954;51.914;8.420;2023-07-02T00:07:58;3.07;;;2.87;;
15708;SDS011;7954;51.914;8.420;2023-07-02T00:10:26;3.30;;;3.07;;
15708;SDS011;7954;51.914;8.420;2023-07-02T00:12:54;2.60;;;2.40;;
15708;SDS011;7954;51.914;8.420;2023-07-02T00:15:22;3.17;;;2.87;;
15708;SDS011;7954;51.914;8.420;2023-07-02T00:17:50;4.67;;;3.30;;
15708;SDS011;7954;51.914;8.420;2023-07-02T00:20:19;3.27;;;3.00;;
15708;SDS011;7954;51.914;8.420;2023-07-02T00:22:48;3.10;;;2.80;;
15708;SDS011;7954;51.914;8.420;2023-07-02T00:25:17;3.30;;;3.00;;
15708;SDS011;7954;51.914;8.420;2023-07-02T00:27:46;3.40;;;3.10;;
15708;SDS011;7954;51.914;8.420;2023-07-02T00:30:14;3.27;;;2.90;;
15708;SDS011;7954;51.914;8.420;2023-07-02T00:32:42;3.50;;;3.30;;
15708;SDS011;7954;51.914;8.420;2023-07-02T00:35:10;3.17;;;2.97;;
15708;SDS011;7954;51.914;8.420;2023-07-02T00:37:38;3.13;;;2.87;;
15708;SDS011;7954;51.914;8.420;2023-07-02T00:40:06;3.00;;;2.80;;
15708;SDS011;7954;51.914;8.420;2023-07-02T00:42:38;3.83;;;3.53;;
15708;SDS011;7954;51.914;8.420;2023-07-02T00:45:07;3.63;;;3.33;;
15708;SDS011;7954;51.914;8.420;2023-07-02T00:47:36;3.50;;;3.30;;
15708;SDS011;7954;51.914;8.420;2023-07-02T00:50:04;4.30;;;3.90;;
15708;SDS011;7954;51.914;8.420;2023-07-02T00:52:36;4.00;;;3.70;;
15708;SDS011;7954;51.914;8.420;2023-07-02T00:55:04;5.30;;;4.80;;
15708;SDS011;7954;51.914;8.420;2023-07-02T00:57:33;4.30;;;3.90;;
15708;SDS011;7954;51.914;8.420;2023-07-02T01:00:03;4.00;;;3.60;;
15708;SDS011;7954;51.914;8.420;2023-07-02T01:02:33;4.57;;;4.17;;
15708;SDS011;7954;51.914;8.420;2023-07-02T01:05:01;3.80;;;3.50;;
15708;SDS011;7954;51.914;8.420;2023-07-02T01:07:29;4.00;;;3.60;;
15708;SDS011;7954;51.914;8.420;2023-07-02T01:09:57;3.80;;;3.37;;
15708;SDS011;7954;51.914;8.420;2023-07-02T01:12:25;4.13;;;3.83;;
15708;SDS011;7954;51.914;8.420;2023-07-02T01:14:56;4.30;;;3.60;;
15708;SDS011;7954;51.914;8.420;2023-07-02T01:17:30;4.07;;;3.77;;
15708;SDS011;7954;51.914;8.420;2023-07-02T01:20:11;5.30;;;4.80;;
15708;SDS011;7954;51.914;8.420;2023-07-02T01:22:40;4.57;;;4.10;;
15708;SDS011;7954;51.914;8.420;2023-07-02T01:25:08;4.83;;;3.97;;
15708;SDS011;7954;51.914;8.420;2023-07-02T01:27:36;4.60;;;4.20;;
15708;SDS011;7954;51.914;8.420;2023-07-02T01:30:05;4.50;;;4.10;;
15708;SDS011;7954;51.914;8.420;2023-07-02T01:32:35;4.00;;;3.70;;
15708;SDS011;7954;51.914;8.420;2023-07-02T01:35:04;4.43;;;4.03;;
15708;SDS011;7954;51.914;8.420;2023-07-02T01:37:34;4.43;;;4.03;;
15708;SDS011;7954;51.914;8.420;2023-07-02T01:40:04;4.60;;;4.20;;
15708;SDS011;7954;51.914;8.420;2023-07-02T01:42:32;4.73;;;4.33;;
15708;SDS011;7954;51.914;8.420;2023-07-02T01:45:01;5.43;;;4.43;;
15708;SDS011;7954;51.914;8.420;2023-07-02T01:47:31;4.83;;;4.50;;
15708;SDS011;7954;51.914;8.420;2023-07-02T01:49:59;4.87;;;4.47;;
15708;SDS011;7954;51.914;8.420;2023-07-02T01:52:27;5.00;;;4.60;;
15708;SDS011;7954;51.914;8.420;2023-07-02T01:55:01;6.17;;;5.57;;
15708;SDS011;7954;51.914;8.420;2023-07-02T01:57:29;4.73;;;4.40;;
15708;SDS011;7954;51.914;8.420;2023-07-02T01:59:58;4.73;;;4.37;;
15708;SDS011;7954;51.914;8.420;2023-07-02T02:02:25;4.93;;;4.07;;
15708;SDS011;7954;51.914;8.420;2023-07-02T02:04:54;6.47;;;4.63;;
15708;SDS011;7954;51.914;8.420;2023-07-02T02:07:23;5.00;;;4.60;;
15708;SDS011;7954;51.914;8.420;2023-07-02T02:09:51;5.50;;;5.00;;
15708;SDS011;7954;51.914;8.420;2023-07-02T02:12:21;6.00;;;4.83;;
15708;SDS011;7954;51.914;8.420;2023-07-02T02:14:49;5.00;;;4.60;;
15708;SDS011;7954;51.914;8.420;2023-07-02T02:17:17;5.80;;;4.87;;
15708;SDS011;7954;51.914;8.420;2023-07-02T02:19:45;5.43;;;4.93;;
15708;SDS011;7954;51.914;8.420;2023-07-02T02:22:13;4.83;;;4.43;;
15708;SDS011;7954;51.914;8.420;2023-07-02T02:24:41;5.10;;;4.70;;
15708;SDS011;7954;51.914;8.420;2023-07-02T02:27:09;5.30;;;4.80;;
15708;SDS011;7954;51.914;8.420;2023-07-02T02:29:39;4.60;;;4.30;;
15708;SDS011;7954;51.914;8.420;2023-07-02T02:32:07;5.43;;;4.93;;
15708;SDS011;7954;51.914;8.420;2023-07-02T02:34:35;5.80;;;5.27;;
15708;SDS011;7954;51.914;8.420;2023-07-02T02:37:03;5.60;;;4.80;;
15708;SDS011;7954;51.914;8.420;2023-07-02T02:39:31;6.10;;;4.70;;
15708;SDS011;7954;51.914;8.420;2023-07-02T02:41:59;5.50;;;4.80;;
15708;SDS011;7954;51.914;8.420;2023-07-02T02:44:27;4.80;;;4.40;;
15708;SDS011;7954;51.914;8.420;2023-07-02T02:46:57;4.90;;;4.50;;
15708;SDS011;7954;51.914;8.420;2023-07-02T02:49:26;4.73;;;4.30;;
15708;SDS011;7954;51.914;8.420;2023-07-02T02:51:54;5.57;;;5.07;;
15708;SDS011;7954;51.914;8.420;2023-07-02T02:54:22;6.60;;;5.10;;
15708;SDS011;7954;51.914;8.420;2023-07-02T02:56:50;5.57;;;4.87;;
15708;SDS011;7954;51.914;8.420;2023-07-02T02:59:18;5.13;;;4.73;;
15708;SDS011;7954;51.914;8.420;2023-07-02T03:01:46;6.17;;;5.17;;
15708;SDS011;7954;51.914;8.420;2023-07-02T03:04:16;5.90;;;5.40;;
15708;SDS011;7954;51.914;8.420;2023-07-02T03:06:44;5.67;;;5.17;;
15708;SDS011;7954;51.914;8.420;2023-07-02T03:09:13;7.17;;;5.33;;
15708;SDS011;7954;51.914;8.420;2023-07-02T03:11:41;6.80;;;5.43;;
15708;SDS011;7954;51.914;8.420;2023-07-02T03:14:10;5.80;;;4.90;;
15708;SDS011;7954;51.914;8.420;2023-07-02T03:16:38;6.00;;;5.40;;
15708;SDS011;7954;51.914;8.420;2023-07-02T03:19:07;5.50;;;4.93;;
15708;SDS011;7954;51.914;8.420;2023-07-02T03:21:36;6.07;;;5.40;;
15708;SDS011;7954;51.914;8.420;2023-07-02T03:24:05;4.90;;;4.50;;
15708;SDS011;7954;51.914;8.420;2023-07-02T03:26:33;5.30;;;4.90;;
15708;SDS011;7954;51.914;8.420;2023-07-02T03:29:02;6.10;;;5.13;;
15708;SDS011;7954;51.914;8.420;2023-07-02T03:31:29;6.10;;;5.50;;
15708;SDS011;7954;51.914;8.420;2023-07-02T03:33:57;6.47;;;5.27;;
15708;SDS011;7954;51.914;8.420;2023-07-02T03:36:25;5.63;;;5.07;;
15708;SDS011;7954;51.914;8.420;2023-07-02T03:38:55;7.67;;;5.40;;
15708;SDS011;7954;51.914;8.420;2023-07-02T03:41:23;7.30;;;5.60;;
15708;SDS011;7954;51.914;8.420;2023-07-02T03:43:51;6.23;;;5.20;;
15708;SDS011;7954;51.914;8.420;2023-07-02T03:46:19;6.87;;;5.33;;
15708;SDS011;7954;51.914;8.420;2023-07-02T03:48:48;7.30;;;5.00;;
15708;SDS011;7954;51.914;8.420;2023-07-02T03:51:16;6.17;;;5.57;;
15708;SDS011;7954;51.914;8.420;2023-07-02T03:53:44;6.00;;;5.00;;
15708;SDS011;7954;51.914;8.420;2023-07-02T03:56:13;7.37;;;5.80;;
15708;SDS011;7954;51.914;8.420;2023-07-02T03:58:41;5.80;;;5.03;;
15708;SDS011;7954;51.914;8.420;2023-07-02T04:01:09;8.67;;;5.37;;
15708;SDS011;7954;51.914;8.420;2023-07-02T04:03:47;10.23;;;6.43;;
15708;SDS011;7954;51.914;8.420;2023-07-02T04:06:16;7.30;;;6.13;;
15708;SDS011;7954;51.914;8.420;2023-07-02T04:08:44;8.17;;;6.33;;
15708;SDS011;7954;51.914;8.420;2023-07-02T04:11:14;6.10;;;5.50;;
15708;SDS011;7954;51.914;8.420;2023-07-02T04:13:43;9.43;;;5.90;;
15708;SDS011;7954;51.914;8.420;2023-07-02T04:16:11;9.90;;;8.27;;
15708;SDS011;7954;51.914;8.420;2023-07-02T04:18:39;10.80;;;8.83;;
15708;SDS011;7954;51.914;8.420;2023-07-02T04:21:07;12.03;;;8.93;;
15708;SDS011;7954;51.914;8.420;2023-07-02T04:23:35;9.20;;;7.60;;
15708;SDS011;7954;51.914;8.420;2023-07-02T04:26:04;13.03;;;7.67;;
15708;SDS011;7954;51.914;8.420;2023-07-02T04:28:53;11.13;;;7.20;;
15708;SDS011;7954;51.914;8.420;2023-07-02T04:31:21;14.30;;;7.57;;
15708;SDS011;7954;51.914;8.420;2023-07-02T04:33:49;12.70;;;6.80;;
15708;SDS011;7954;51.914;8.420;2023-07-02T04:36:17;10.97;;;7.67;;
15708;SDS011;7954;51.914;8.420;2023-07-02T04:38:45;11.70;;;7.50;;
15708;SDS011;7954;51.914;8.420;2023-07-02T04:41:13;12.47;;;7.60;;
15708;SDS011;7954;51.914;8.420;2023-07-02T04:43:42;11.33;;;6.87;;
15708;SDS011;7954;51.914;8.420;2023-07-02T04:46:13;10.20;;;7.60;;
15708;SDS011;7954;51.914;8.420;2023-07-02T04:48:41;13.50;;;7.17;;
15708;SDS011;7954;51.914;8.420;2023-07-02T04:51:09;11.97;;;7.37;;
15708;SDS011;7954;51.914;8.420;2023-07-02T04:53:37;8.60;;;6.10;;
15708;SDS011;7954;51.914;8.420;2023-07-02T04:56:05;9.27;;;6.83;;
15708;SDS011;7954;51.914;8.420;2023-07-02T04:58:34;9.90;;;6.53;;
15708;SDS011;7954;51.914;8.420;2023-07-02T05:01:02;11.07;;;7.13;;
15708;SDS011;7954;51.914;8.420;2023-07-02T05:03:33;10.70;;;6.37;;
15708;SDS011;7954;51.914;8.420;2023-07-02T05:06:01;9.20;;;6.47;;
15708;SDS011;7954;51.914;8.420;2023-07-02T05:08:30;9.73;;;6.40;;
15708;SDS011;7954;51.914;8.420;2023-07-02T05:10:58;10.47;;;6.43;;
15708;SDS011;7954;51.914;8.420;2023-07-02T05:13:26;9.67;;;6.43;;
15708;SDS011;7954;51.914;8.420;2023-07-02T05:15:54;10.53;;;6.77;;
15708;SDS011;7954;51.914;8.420;2023-07-02T05:18:22;10.43;;;7.10;;
15708;SDS011;7954;51.914;8.420;2023-07-02T05:20:51;11.17;;;7.47;;
15708;SDS011;7954;51.914;8.420;2023-07-02T05:23:19;13.10;;;8.30;;
15708;SDS011;7954;51.914;8.420;2023-07-02T05:25:47;10.30;;;7.27;;
15708;SDS011;7954;51.914;8.420;2023-07-02T05:28:15;11.47;;;7.93;;
15708;SDS011;7954;51.914;8.420;2023-07-02T05:30:43;12.13;;;7.47;;
15708;SDS011;7954;51.914;8.420;2023-07-02T05:33:12;11.20;;;6.63;;
15708;SDS011;7954;51.914;8.420;2023-07-02T05:35:40;10.70;;;8.13;;
15708;SDS011;7954;51.914;8.420;2023-07-02T05:38:09;13.67;;;8.27;;
15708;SDS011;7954;51.914;8.420;2023-07-02T05:40:37;10.03;;;7.30;;
15708;SDS011;7954;51.914;8.420;2023-07-02T05:43:05;10.53;;;7.87;;
15708;SDS011;7954;51.914;8.420;2023-07-02T05:45:33;10.23;;;7.33;;
15708;SDS011;7954;51.914;8.420;2023-07-02T05:48:01;13.00;;;7.30;;
15708;SDS011;7954;51.914;8.420;2023-07-02T05:50:29;9.07;;;6.97;;
15708;SDS011;7954;51.914;8.420;2023-07-02T05:52:57;9.13;;;7.80;;
15708;SDS011;7954;51.914;8.420;2023-07-02T05:55:26;11.53;;;7.40;;
15708;SDS011;7954;51.914;8.420;2023-07-02T05:57:54;11.37;;;7.03;;
15708;SDS011;7954;51.914;8.420;2023-07-02T06:00:23;10.67;;;6.87;;
15708;SDS011;7954;51.914;8.420;2023-07-02T06:02:51;8.83;;;7.07;;
15708;SDS011;7954;51.914;8.420;2023-07-02T06:05:19;9.50;;;6.60;;
15708;SDS011;7954;51.914;8.420;2023-07-02T06:07:47;13.47;;;8.10;;
15708;SDS011;7954;51.914;8.420;2023-07-02T06:10:16;8.70;;;6.23;;
15708;SDS011;7954;51.914;8.420;2023-07-02T06:12:47;9.67;;;6.60;;
15708;SDS011;7954;51.914;8.420;2023-07-02T06:15:15;8.53;;;6.20;;
15708;SDS011;7954;51.914;8.420;2023-07-02T06:17:43;9.27;;;5.93;;
15708;SDS011;7954;51.914;8.420;2023-07-02T06:20:12;9.93;;;6.47;;
15708;SDS011;7954;51.914;8.420;2023-07-02T06:22:40;9.23;;;6.37;;
15708;SDS011;7954;51.914;8.420;2023-07-02T06:25:08;10.00;;;6.07;;
15708;SDS011;7954;51.914;8.420;2023-07-02T06:27:36;12.07;;;6.67;;
15708;SDS011;7954;51.914;8.420;2023-07-02T06:30:09;11.67;;;6.60;;
15708;SDS011;7954;51.914;8.420;2023-07-02T06:32:37;9.40;;;5.77;;
15708;SDS011;7954;51.914;8.420;2023-07-02T06:35:05;10.73;;;6.40;;
15708;SDS011;7954;51.914;8.420;2023-07-02T06:37:33;9.47;;;5.23;;
15708;SDS011;7954;51.914;8.420;2023-07-02T06:40:02;9.73;;;5.27;;
15708;SDS011;7954;51.914;8.420;2023-07-02T06:42:30;8.57;;;5.63;;
15708;SDS011;7954;51.914;8.420;2023-07-02T06:44:59;9.20;;;5.63;;
15708;SDS011;7954;51.914;8.420;2023-07-02T06:47:28;12.27;;;6.60;;
15708;SDS011;7954;51.914;8.420;2023-07-02T06:49:56;12.53;;;6.37;;
15708;SDS011;7954;51.914;8.420;2023-07-02T06:52:28;8.73;;;5.70;;
15708;SDS011;7954;51.914;8.420;2023-07-02T06:54:56;13.03;;;6.97;;
15708;SDS011;7954;51.914;8.420;2023-07-02T06:57:23;8.30;;;5.40;;
15708;SDS011;7954;51.914;8.420;2023-07-02T06:59:51;9.87;;;6.03;;
15708;SDS011;7954;51.914;8.420;2023-07-02T07:02:19;9.47;;;5.73;;
15708;SDS011;7954;51.914;8.420;2023-07-02T07:04:49;12.97;;;6.40;;
15708;SDS011;7954;51.914;8.420;2023-07-02T07:07:17;13.40;;;5.97;;
15708;SDS011;7954;51.914;8.420;2023-07-02T07:09:45;9.70;;;6.20;;
15708;SDS011;7954;51.914;8.420;2023-07-02T07:12:14;12.17;;;6.53;;
15708;SDS011;7954;51.914;8.420;2023-07-02T07:14:41;9.53;;;6.03;;
15708;SDS011;7954;51.914;8.420;2023-07-02T07:17:10;8.20;;;5.60;;
15708;SDS011;7954;51.914;8.420;2023-07-02T07:19:38;9.13;;;5.80;;
15708;SDS011;7954;51.914;8.420;2023-07-02T07:22:07;10.40;;;5.97;;
15708;SDS011;7954;51.914;8.420;2023-07-02T07:24:35;10.23;;;6.47;;
15708;SDS011;7954;51.914;8.420;2023-07-02T07:27:03;9.50;;;6.63;;
15708;SDS011;7954;51.914;8.420;2023-07-02T07:29:31;9.13;;;6.20;;
15708;SDS011;7954;51.914;8.420;2023-07-02T07:31:59;10.80;;;5.80;;
15708;SDS011;7954;51.914;8.420;2023-07-02T07:34:27;8.33;;;5.60;;
15708;SDS011;7954;51.914;8.420;2023-07-02T07:36:55;10.20;;;6.27;;
15708;SDS011;7954;51.914;8.420;2023-07-02T07:39:25;10.03;;;6.60;;
15708;SDS011;7954;51.914;8.420;2023-07-02T07:41:53;10.37;;;6.60;;
15708;SDS011;7954;51.914;8.420;2023-07-02T07:44:22;10.17;;;6.47;;
15708;SDS011;7954;51.914;8.420;2023-07-02T07:46:50;9.77;;;6.13;;
15708;SDS011;7954;51.914;8.420;2023-07-02T07:49:18;12.10;;;6.60;;
15708;SDS011;7954;51.914;8.420;2023-07-02T07:51:45;11.63;;;6.53;;
15708;SDS011;7954;51.914;8.420;2023-07-02T07:54:13;10.60;;;6.83;;
15708;SDS011;7954;51.914;8.420;2023-07-02T07:56:43;10.67;;;5.80;;
15708;SDS011;7954;51.914;8.420;2023-07-02T07:59:11;14.13;;;6.77;;
15708;SDS011;7954;51.914;8.420;2023-07-02T08:01:41;9.40;;;5.87;;
15708;SDS011;7954;51.914;8.420;2023-07-02T08:04:09;8.73;;;6.30;;
15708;SDS011;7954;51.914;8.420;2023-07-02T08:06:37;7.70;;;5.90;;
15708;SDS011;7954;51.914;8.420;2023-07-02T08:09:05;10.67;;;6.60;;
15708;SDS011;7954;51.914;8.420;2023-07-02T08:11:33;11.90;;;6.83;;
15708;SDS011;7954;51.914;8.420;2023-07-02T08:14:03;10.93;;;6.13;;
15708;SDS011;7954;51.914;8.420;2023-07-02T08:16:31;11.20;;;5.87;;
15708;SDS011;7954;51.914;8.420;2023-07-02T08:18:59;9.67;;;6.30;;
15708;SDS011;7954;51.914;8.420;2023-07-02T08:21:29;12.73;;;6.37;;
15708;SDS011;7954;51.914;8.420;2023-07-02T08:23:58;8.87;;;6.50;;
15708;SDS011;7954;51.914;8.420;2023-07-02T08:26:25;9.97;;;6.10;;
15708;SDS011;7954;51.914;8.420;2023-07-02T08:28:53;11.30;;;7.10;;
15708;SDS011;7954;51.914;8.420;2023-07-02T08:31:23;12.93;;;7.53;;
15708;SDS011;7954;51.914;8.420;2023-07-02T08:33:51;11.10;;;6.80;;
15708;SDS011;7954;51.914;8.420;2023-07-02T08:36:18;9.90;;;6.43;;
15708;SDS011;7954;51.914;8.420;2023-07-02T08:38:46;9.67;;;6.03;;
15708;SDS011;7954;51.914;8.420;2023-07-02T08:41:14;10.00;;;6.63;;
15708;SDS011;7954;51.914;8.420;2023-07-02T08:43:42;9.80;;;7.10;;
15708;SDS011;7954;51.914;8.420;2023-07-02T08:46:11;12.77;;;9.87;;
15708;SDS011;7954;51.914;8.420;2023-07-02T08:48:41;13.17;;;7.90;;
15708;SDS011;7954;51.914;8.420;2023-07-02T08:51:09;10.40;;;7.27;;
15708;SDS011;7954;51.914;8.420;2023-07-02T08:53:37;9.63;;;6.30;;
15708;SDS011;7954;51.914;8.420;2023-07-02T08:56:05;10.73;;;6.73;;
15708;SDS011;7954;51.914;8.420;2023-07-02T08:58:33;9.47;;;6.30;;
15708;SDS011;7954;51.914;8.420;2023-07-02T09:01:05;9.23;;;6.47;;
15708;SDS011;7954;51.914;8.420;2023-07-02T09:03:36;10.13;;;8.40;;
15708;SDS011;7954;51.914;8.420;2023-07-02T09:06:06;10.70;;;8.60;;
15708;SDS011;7954;51.914;8.420;2023-07-02T09:08:35;10.43;;;6.87;;
15708;SDS011;7954;51.914;8.420;2023-07-02T09:11:07;6.73;;;5.97;;
15708;SDS011;7954;51.914;8.420;2023-07-02T09:13:42;11.13;;;7.30;;
15708;SDS011;7954;51.914;8.420;2023-07-02T09:16:21;6.97;;;5.73;;
15708;SDS011;7954;51.914;8.420;2023-07-02T09:18:58;8.73;;;5.63;;
15708;SDS011;7954;51.914;8.420;2023-07-02T09:21:28;9.47;;;7.00;;
15708;SDS011;7954;51.914;8.420;2023-07-02T09:24:11;9.33;;;7.40;;
15708;SDS011;7954;51.914;8.420;2023-07-02T09:26:41;10.27;;;6.93;;
15708;SDS011;7954;51.914;8.420;2023-07-02T09:29:11;9.97;;;6.17;;
15708;SDS011;7954;51.914;8.420;2023-07-02T09:31:43;7.90;;;5.20;;
15708;SDS011;7954;51.914;8.420;2023-07-02T09:34:32;8.77;;;5.90;;
15708;SDS011;7954;51.914;8.420;2023-07-02T09:37:03;12.17;;;6.43;;
15708;SDS011;7954;51.914;8.420;2023-07-02T09:39:32;9.10;;;6.50;;
15708;SDS011;7954;51.914;8.420;2023-07-02T09:42:02;7.57;;;6.40;;
15708;SDS011;7954;51.914;8.420;2023-07-02T09:44:34;7.87;;;6.77;;
15708;SDS011;7954;51.914;8.420;2023-07-02T09:47:03;9.37;;;6.40;;
15708;SDS011;7954;51.914;8.420;2023-07-02T09:49:33;8.77;;;5.97;;
15708;SDS011;7954;51.914;8.420;2023-07-02T09:52:04;7.97;;;6.03;;
15708;SDS011;7954;51.914;8.420;2023-07-02T09:54:33;10.50;;;5.83;;
15708;SDS011;7954;51.914;8.420;2023-07-02T09:57:02;10.90;;;5.90;;
15708;SDS011;7954;51.914;8.420;2023-07-02T09:59:30;6.97;;;5.53;;
15708;SDS011;7954;51.914;8.420;2023-07-02T10:01:58;13.47;;;9.57;;
15708;SDS011;7954;51.914;8.420;2023-07-02T10:04:28;6.73;;;5.73;;
15708;SDS011;7954;51.914;8.420;2023-07-02T10:07:09;9.73;;;6.97;;
15708;SDS011;7954;51.914;8.420;2023-07-02T10:09:39;7.67;;;6.30;;
15708;SDS011;7954;51.914;8.420;2023-07-02T10:12:14;7.23;;;5.80;;
15708;SDS011;7954;51.914;8.420;2023-07-02T10:14:43;9.43;;;6.03;;
15708;SDS011;7954;51.914;8.420;2023-07-02T10:17:22;8.67;;;6.00;;
15708;SDS011;7954;51.914;8.420;2023-07-02T10:19:52;8.07;;;5.20;;
15708;SDS011;7954;51.914;8.420;2023-07-02T10:22:22;7.00;;;6.30;;
15708;SDS011;7954;51.914;8.420;2023-07-02T10:24:52;7.07;;;6.23;;
15708;SDS011;7954;51.914;8.420;2023-07-02T10:27:20;9.53;;;6.40;;
15708;SDS011;7954;51.914;8.420;2023-07-02T10:30:00;8.73;;;5.60;;
15708;SDS011;7954;51.914;8.420;2023-07-02T10:32:30;8.30;;;5.57;;
15708;SDS011;7954;51.914;8.420;2023-07-02T10:34:59;6.30;;;5.50;;
15708;SDS011;7954;51.914;8.420;2023-07-02T10:37:37;7.07;;;5.47;;
15708;SDS011;7954;51.914;8.420;2023-07-02T10:40:06;9.07;;;6.43;;
15708;SDS011;7954;51.914;8.420;2023-07-02T10:42:44;7.50;;;5.80;;
15708;SDS011;7954;51.914;8.420;2023-07-02T10:45:13;6.90;;;5.27;;
15708;SDS011;7954;51.914;8.420;2023-07-02T10:47:41;9.80;;;6.00;;
15708;SDS011;7954;51.914;8.420;2023-07-02T10:50:16;7.60;;;5.07;;
15708;SDS011;7954;51.914;8.420;2023-07-02T10:52:46;10.20;;;5.53;;
15708;SDS011;7954;51.914;8.420;2023-07-02T10:55:17;8.20;;;6.10;;
15708;SDS011;7954;51.914;8.420;2023-07-02T10:57:46;9.53;;;5.47;;
15708;SDS011;7954;51.914;8.420;2023-07-02T11:00:17;8.13;;;6.10;;
15708;SDS011;7954;51.914;8.420;2023-07-02T11:02:46;8.77;;;6.30;;
15708;SDS011;7954;51.914;8.420;2023-07-02T11:05:14;13.70;;;6.37;;
15708;SDS011;7954;51.914;8.420;2023-07-02T11:07:42;8.83;;;5.43;;
15708;SDS011;7954;51.914;8.420;2023-07-02T11:10:18;10.93;;;6.03;;
15708;SDS011;7954;51.914;8.420;2023-07-02T11:12:47;8.00;;;5.60;;
15708;SDS011;7954;51.914;8.420;2023-07-02T11:15:16;8.70;;;6.00;;
15708;SDS011;7954;51.914;8.420;2023-07-02T11:17:44;9.90;;;5.87;;
15708;SDS011;7954;51.914;8.420;2023-07-02T11:20:13;7.37;;;5.37;;
15708;SDS011;7954;51.914;8.420;2023-07-02T11:22:42;7.63;;;5.80;;
15708;SDS011;7954;51.914;8.420;2023-07-02T11:25:11;10.20;;;6.13;;
15708;SDS011;7954;51.914;8.420;2023-07-02T11:27:41;9.90;;;6.33;;
15708;SDS011;7954;51.914;8.420;2023-07-02T11:30:10;11.70;;;6.70;;
15708;SDS011;7954;51.914;8.420;2023-07-02T11:32:49;7.47;;;4.77;;
15708;SDS011;7954;51.914;8.420;2023-07-02T11:35:19;9.77;;;5.90;;
15708;SDS011;7954;51.914;8.420;2023-07-02T11:37:47;8.73;;;6.50;;
15708;SDS011;7954;51.914;8.420;2023-07-02T11:40:17;7.67;;;6.10;;
15708;SDS011;7954;51.914;8.420;2023-07-02T11:42:47;7.40;;;5.47;;
15708;SDS011;7954;51.914;8.420;2023-07-02T11:45:15;8.33;;;5.53;;
15708;SDS011;7954;51.914;8.420;2023-07-02T11:47:43;6.90;;;5.03;;
15708;SDS011;7954;51.914;8.420;2023-07-02T11:50:11;8.40;;;5.33;;
15708;SDS011;7954;51.914;8.420;2023-07-02T11:52:51;8.17;;;6.47;;
15708;SDS011;7954;51.914;8.420;2023-07-02T11:55:19;7.97;;;5.80;;
15708;SDS011;7954;51.914;8.420;2023-07-02T11:57:49;6.60;;;5.37;;
15708;SDS011;7954;51.914;8.420;2023-07-02T12:00:17;9.10;;;6.20;;
15708;SDS011;7954;51.914;8.420;2023-07-02T12:02:45;7.30;;;5.30;;
15708;SDS011;7954;51.914;8.420;2023-07-02T12:05:13;8.73;;;6.13;;
15708;SDS011;7954;51.914;8.420;2023-07-02T12:07:41;7.80;;;5.43;;
15708;SDS011;7954;51.914;8.420;2023-07-02T12:10:09;9.27;;;6.00;;
15708;SDS011;7954;51.914;8.420;2023-07-02T12:12:37;8.93;;;5.63;;
15708;SDS011;7954;51.914;8.420;2023-07-02T12:15:07;7.70;;;6.07;;
15708;SDS011;7954;51.914;8.420;2023-07-02T12:17:36;9.07;;;5.37;;
15708;SDS011;7954;51.914;8.420;2023-07-02T12:20:04;10.60;;;5.57;;
15708;SDS011;7954;51.914;8.420;2023-07-02T12:22:33;8.17;;;6.17;;
15708;SDS011;7954;51.914;8.420;2023-07-02T12:25:00;7.00;;;5.77;;
15708;SDS011;7954;51.914;8.420;2023-07-02T12:27:28;7.00;;;5.33;;
15708;SDS011;7954;51.914;8.420;2023-07-02T12:29:56;7.43;;;4.90;;
15708;SDS011;7954;51.914;8.420;2023-07-02T12:32:26;7.00;;;5.03;;
15708;SDS011;7954;51.914;8.420;2023-07-02T12:34:54;6.10;;;5.07;;
15708;SDS011;7954;51.914;8.420;2023-07-02T12:37:22;6.97;;;4.73;;
15708;SDS011;7954;51.914;8.420;2023-07-02T12:39:51;6.33;;;4.63;;
15708;SDS011;7954;51.914;8.420;2023-07-02T12:42:19;7.00;;;4.70;;
15708;SDS011;7954;51.914;8.420;2023-07-02T12:44:47;7.90;;;4.90;;
15708;SDS011;7954;51.914;8.420;2023-07-02T12:47:16;5.07;;;4.10;;
15708;SDS011;7954;51.914;8.420;2023-07-02T12:49:45;7.53;;;6.70;;
15708;SDS011;7954;51.914;8.420;2023-07-02T12:52:13;9.80;;;5.27;;
15708;SDS011;7954;51.914;8.420;2023-07-02T12:54:42;8.20;;;4.50;;
15708;SDS011;7954;51.914;8.420;2023-07-02T12:57:10;7.67;;;5.17;;
15708;SDS011;7954;51.914;8.420;2023-07-02T12:59:37;8.67;;;5.23;;
15708;SDS011;7954;51.914;8.420;2023-07-02T13:02:06;8.43;;;4.97;;
15708;SDS011;7954;51.914;8.420;2023-07-02T13:04:34;5.77;;;4.30;;
15708;SDS011;7954;51.914;8.420;2023-07-02T13:07:04;7.13;;;5.37;;
15708;SDS011;7954;51.914;8.420;2023-07-02T13:09:32;6.83;;;5.60;;
15708;SDS011;7954;51.914;8.420;2023-07-02T13:12:00;6.17;;;4.90;;
15708;SDS011;7954;51.914;8.420;2023-07-02T13:14:27;8.67;;;4.53;;
15708;SDS011;7954;51.914;8.420;2023-07-02T13:16:55;5.83;;;4.63;;
15708;SDS011;7954;51.914;8.420;2023-07-02T13:19:25;7.05;;;5.60;;
15708;SDS011;7954;51.914;8.420;2023-07-02T13:21:53;4.70;;;4.20;;
15708;SDS011;7954;51.914;8.420;2023-07-02T13:24:23;7.78;;;4.38;;
15708;SDS011;7954;51.914;8.420;2023-07-02T13:26:51;5.30;;;4.22;;
15708;SDS011;7954;51.914;8.420;2023-07-02T13:29:19;8.15;;;6.50;;
15708;SDS011;7954;51.914;8.420;2023-07-02T13:31:47;9.30;;;7.77;;
15708;SDS011;7954;51.914;8.420;2023-07-02T13:34:15;9.20;;;7.47;;
15708;SDS011;7954;51.914;8.420;2023-07-02T13:36:43;7.03;;;6.33;;
15708;SDS011;7954;51.914;8.420;2023-07-02T13:39:12;8.20;;;6.25;;
15708;SDS011;7954;51.914;8.420;2023-07-02T13:41:41;4.93;;;4.05;;
15708;SDS011;7954;51.914;8.420;2023-07-02T13:44:09;6.63;;;4.43;;
15708;SDS011;7954;51.914;8.420;2023-07-02T13:46:37;6.63;;;4.93;;
15708;SDS011;7954;51.914;8.420;2023-07-02T13:49:06;5.80;;;5.20;;
15708;SDS011;7954;51.914;8.420;2023-07-02T13:51:35;6.10;;;4.43;;
15708;SDS011;7954;51.914;8.420;2023-07-02T13:54:04;6.85;;;5.30;;
15708;SDS011;7954;51.914;8.420;2023-07-02T13:56:32;6.75;;;5.97;;
15708;SDS011;7954;51.914;8.420;2023-07-02T13:59:02;6.57;;;4.82;;
15708;SDS011;7954;51.914;8.420;2023-07-02T14:01:31;6.07;;;4.80;;
15708;SDS011;7954;51.914;8.420;2023-07-02T14:04:00;6.97;;;4.60;;
15708;SDS011;7954;51.914;8.420;2023-07-02T14:06:29;6.67;;;4.80;;
15708;SDS011;7954;51.914;8.420;2023-07-02T14:08:57;9.20;;;5.30;;
15708;SDS011;7954;51.914;8.420;2023-07-02T14:11:25;6.13;;;4.17;;
15708;SDS011;7954;51.914;8.420;2023-07-02T14:13:54;7.15;;;4.43;;
15708;SDS011;7954;51.914;8.420;2023-07-02T14:16:24;5.45;;;4.50;;
15708;SDS011;7954;51.914;8.420;2023-07-02T14:18:54;8.70;;;5.28;;
15708;SDS011;7954;51.914;8.420;2023-07-02T14:21:22;7.95;;;6.22;;
15708;SDS011;7954;51.914;8.420;2023-07-02T14:23:50;7.35;;;5.32;;
15708;SDS011;7954;51.914;8.420;2023-07-02T14:26:18;8.32;;;5.72;;
15708;SDS011;7954;51.914;8.420;2023-07-02T14:28:47;6.32;;;5.60;;
15708;SDS011;7954;51.914;8.420;2023-07-02T14:31:15;9.07;;;5.32;;
15708;SDS011;7954;51.914;8.420;2023-07-02T14:33:45;9.82;;;8.55;;
15708;SDS011;7954;51.914;8.420;2023-07-02T14:36:14;7.53;;;6.50;;
15708;SDS011;7954;51.914;8.420;2023-07-02T14:38:43;7.53;;;5.78;;
15708;SDS011;7954;51.914;8.420;2023-07-02T14:41:12;6.63;;;6.03;;
15708;SDS011;7954;51.914;8.420;2023-07-02T14:43:40;9.23;;;6.07;;
15708;SDS011;7954;51.914;8.420;2023-07-02T14:46:08;7.22;;;4.80;;
15708;SDS011;7954;51.914;8.420;2023-07-02T14:48:37;7.90;;;5.78;;
15708;SDS011;7954;51.914;8.420;2023-07-02T14:51:08;6.93;;;5.00;;
15708;SDS011;7954;51.914;8.420;2023-07-02T14:53:37;6.10;;;4.70;;
15708;SDS011;7954;51.914;8.420;2023-07-02T14:56:05;6.60;;;4.95;;
15708;SDS011;7954;51.914;8.420;2023-07-02T14:58:33;8.65;;;5.00;;
15708;SDS011;7954;51.914;8.420;2023-07-02T15:01:01;8.90;;;8.00;;
15708;SDS011;7954;51.914;8.420;2023-07-02T15:03:29;8.50;;;6.00;;
15708;SDS011;7954;51.914;8.420;2023-07-02T15:06:09;6.03;;;4.93;;
15708;SDS011;7954;51.914;8.420;2023-07-02T15:08:38;6.57;;;5.13;;